Time;durP1;ratioP1;P1;durP2;ratioP2;P2;SDS_P1;SDS_P2;PMS_P1;PMS_P2;Temp;Humidity;BMP_temperature;BMP_pressure;BME280_temperature;BME280_humidity;BME280_pressure;Samples;Min_cycle;Max_cycle;Signal;HPM_P1;HPM_P2
2022/10/13 00:00:28;;;;;;;16.30;14.70;;;11.80;99.90;;;;;;5027671;28;20719;-57
2022/10/13 00:02:54;;;;;;;17.60;15.80;;;11.80;99.90;;;;;;5025300;28;20603;-58
2022/10/13 00:05:20;;;;;;;17.37;15.67;;;11.70;99.90;;;;;;5030490;28;20229;-56
2022/10/13 00:07:45;;;;;;;18.53;16.73;;;11.80;99.90;;;;;;5032837;28;20279;-57
2022/10/13 00:10:11;;;;;;;19.70;17.60;;;11.80;99.90;;;;;;5024916;28;20187;-56
2022/10/13 00:12:37;;;;;;;18.87;16.30;;;11.90;99.90;;;;;;5031741;28;20202;-57
2022/10/13 00:15:05;;;;;;;17.13;15.43;;;11.80;99.90;;;;;;5032520;28;20234;-57
2022/10/13 00:17:32;;;;;;;16.80;15.20;;;11.80;99.90;;;;;;5029375;28;20593;-58
2022/10/13 00:19:58;;;;;;;17.03;15.33;;;11.70;99.90;;;;;;5032780;28;20168;-57
2022/10/13 00:22:23;;;;;;;17.77;15.97;;;11.60;99.90;;;;;;5032934;28;20211;-57
2022/10/13 00:24:52;;;;;;;15.83;14.27;;;11.60;99.90;;;;;;5031761;28;20191;-53
2022/10/13 00:27:18;;;;;;;15.37;13.87;;;11.60;99.90;;;;;;5032628;28;20184;-56
2022/10/13 00:29:45;;;;;;;15.30;13.67;;;11.60;99.90;;;;;;5032490;28;20191;-57
2022/10/13 00:32:10;;;;;;;13.50;12.00;;;11.50;99.90;;;;;;5032547;28;20187;-53
2022/10/13 00:34:37;;;;;;;14.77;13.00;;;11.40;99.90;;;;;;5029130;28;20211;-56
2022/10/13 00:37:03;;;;;;;12.80;11.53;;;11.40;99.90;;;;;;5032561;28;20172;-58
2022/10/13 00:39:28;;;;;;;13.73;11.67;;;11.30;99.90;;;;;;5032391;28;20353;-56
2022/10/13 00:41:55;;;;;;;13.80;12.27;;;11.20;99.90;;;;;;5032570;28;20175;-55
2022/10/13 00:44:58;;;;;;;13.77;12.07;;;11.30;99.90;;;;;;5032148;28;20179;-55
2022/10/13 00:47:29;;;;;;;12.50;11.20;;;11.30;99.90;;;;;;5031373;28;20180;-56
2022/10/13 00:49:55;;;;;;;13.93;12.60;;;11.30;99.90;;;;;;5032485;28;20671;-56
2022/10/13 00:52:21;;;;;;;13.07;11.77;;;11.20;99.90;;;;;;5032247;28;20206;-57
2022/10/13 00:54:48;;;;;;;13.70;12.30;;;11.10;99.90;;;;;;5032168;28;20669;-56
2022/10/13 00:57:14;;;;;;;16.50;12.80;;;11.00;99.90;;;;;;5032391;28;20174;-59
2022/10/13 00:59:40;;;;;;;13.00;11.73;;;11.00;99.90;;;;;;5031483;28;20191;-57
2022/10/13 01:02:06;;;;;;;11.10;10.10;;;11.10;99.90;;;;;;5032160;28;20251;-55
2022/10/13 01:04:44;;;;;;;12.90;9.90;;;10.90;99.90;;;;;;5032379;28;20203;-57
2022/10/13 01:07:10;;;;;;;10.83;9.70;;;10.90;99.90;;;;;;5032661;28;20183;-57
2022/10/13 01:09:41;;;;;;;11.83;9.80;;;10.90;99.90;;;;;;5029830;28;20285;-57
2022/10/13 01:12:32;;;;;;;11.27;10.17;;;10.80;99.90;;;;;;5032398;28;20183;-55
2022/10/13 01:15:15;;;;;;;10.40;9.33;;;10.80;99.90;;;;;;5031722;28;20331;-54
2022/10/13 01:17:56;;;;;;;10.03;9.03;;;10.70;99.90;;;;;;5032104;28;20191;-55
2022/10/13 01:20:24;;;;;;;9.37;8.57;;;10.60;99.90;;;;;;5032038;28;20682;-55
2022/10/13 01:23:02;;;;;;;10.57;9.57;;;10.50;99.90;;;;;;5031872;28;20195;-53
2022/10/13 01:25:46;;;;;;;10.37;8.97;;;10.60;99.90;;;;;;5015562;28;20184;-56
2022/10/13 01:28:48;;;;;;;12.17;10.53;;;10.60;99.90;;;;;;5022720;28;20183;-55
2022/10/13 01:31:22;;;;;;;9.90;8.90;;;10.70;99.90;;;;;;5027097;28;20173;-57
2022/10/13 01:33:56;;;;;;;11.30;9.93;;;10.60;99.90;;;;;;5027827;28;20212;-56
2022/10/13 01:36:39;;;;;;;12.57;10.97;;;10.60;99.90;;;;;;5031672;28;20176;-57
2022/10/13 01:39:17;;;;;;;12.60;11.30;;;10.60;99.90;;;;;;5031610;28;20164;-55
2022/10/13 01:41:48;;;;;;;14.33;12.57;;;10.60;99.90;;;;;;5024834;28;20187;-57
2022/10/13 01:44:23;;;;;;;16.93;13.00;;;10.50;99.90;;;;;;5030902;28;20221;-57
2022/10/13 01:46:50;;;;;;;12.83;11.53;;;10.50;99.90;;;;;;5031588;28;20240;-54
2022/10/13 01:49:18;;;;;;;12.00;10.80;;;10.70;99.90;;;;;;5029825;28;20206;-55
2022/10/13 01:51:45;;;;;;;10.37;9.37;;;10.60;99.90;;;;;;5031095;28;20266;-57
2022/10/13 01:54:10;;;;;;;10.23;9.23;;;10.70;99.90;;;;;;5029354;28;20203;-55
2022/10/13 01:56:36;;;;;;;10.67;9.33;;;10.60;99.90;;;;;;5031081;28;20179;-56
2022/10/13 01:59:07;;;;;;;9.63;8.63;;;10.50;99.90;;;;;;5024004;28;20180;-57
2022/10/13 02:01:58;;;;;;;10.00;9.10;;;10.60;99.90;;;;;;5031426;28;20176;-54
2022/10/13 02:04:47;;;;;;;10.37;9.37;;;10.60;99.90;;;;;;5031144;28;20233;-56
2022/10/13 02:07:27;;;;;;;9.03;8.13;;;10.50;99.90;;;;;;5031368;28;20209;-55
2022/10/13 02:09:59;;;;;;;9.33;8.43;;;10.30;99.90;;;;;;5031830;28;20534;-56
2022/10/13 02:12:45;;;;;;;9.60;8.67;;;10.10;99.90;;;;;;5035456;28;20191;-59
2022/10/13 02:15:14;;;;;;;8.87;8.07;;;10.00;99.90;;;;;;5034942;28;20199;-56
2022/10/13 02:17:41;;;;;;;8.63;7.83;;;10.00;99.90;;;;;;5035371;28;20175;-55
2022/10/13 02:20:08;;;;;;;9.00;8.10;;;9.90;99.90;;;;;;5035111;28;20184;-54
2022/10/13 02:22:42;;;;;;;9.57;7.87;;;9.90;99.90;;;;;;5035065;28;20204;-56
2022/10/13 02:25:08;;;;;;;9.03;8.13;;;9.90;99.90;;;;;;5034354;28;20156;-53
2022/10/13 02:27:34;;;;;;;9.67;8.47;;;9.90;99.90;;;;;;5035162;28;20176;-54
2022/10/13 02:29:59;;;;;;;11.33;10.23;;;9.90;99.90;;;;;;5035077;28;20203;-55
2022/10/13 02:32:25;;;;;;;11.37;9.80;;;10.00;99.90;;;;;;5029557;28;20964;-57
2022/10/13 02:34:51;;;;;;;10.03;9.03;;;10.00;99.90;;;;;;5034701;28;20196;-56
2022/10/13 02:37:17;;;;;;;12.03;10.07;;;10.20;99.90;;;;;;5035062;28;20168;-58
2022/10/13 02:39:42;;;;;;;11.40;9.23;;;10.20;99.90;;;;;;5034997;28;20656;-58
2022/10/13 02:42:08;;;;;;;9.63;8.23;;;10.10;99.90;;;;;;5034729;28;20251;-53
2022/10/13 02:44:34;;;;;;;11.00;9.80;;;10.20;99.90;;;;;;5034663;28;20715;-56
2022/10/13 02:47:00;;;;;;;10.70;9.60;;;10.20;99.90;;;;;;5034473;28;20168;-55
2022/10/13 02:49:25;;;;;;;9.23;8.30;;;10.20;99.90;;;;;;5034610;28;20178;-58
2022/10/13 02:51:52;;;;;;;11.20;9.60;;;10.20;99.90;;;;;;5034711;28;20263;-56
2022/10/13 02:54:17;;;;;;;11.43;9.60;;;10.20;99.90;;;;;;5034095;28;20199;-58
2022/10/13 02:56:43;;;;;;;13.73;11.83;;;10.20;99.90;;;;;;5034673;28;20258;-56
2022/10/13 02:59:09;;;;;;;13.40;10.57;;;10.30;99.90;;;;;;5034476;28;20641;-55
2022/10/13 03:01:39;;;;;;;13.23;12.00;;;10.50;99.90;;;;;;5034469;28;20172;-57
2022/10/13 03:04:09;;;;;;;12.33;11.13;;;10.60;99.90;;;;;;5034190;28;20199;-57
2022/10/13 03:06:35;;;;;;;11.17;10.07;;;10.60;99.90;;;;;;5034405;28;20255;-57
2022/10/13 03:09:00;;;;;;;11.10;10.03;;;10.50;99.90;;;;;;5034416;28;20333;-56
2022/10/13 03:11:26;;;;;;;10.53;9.43;;;10.50;99.90;;;;;;5034405;28;20245;-57
2022/10/13 03:13:51;;;;;;;11.10;9.80;;;10.70;99.90;;;;;;5033839;28;20208;-55
2022/10/13 03:16:17;;;;;;;11.73;9.90;;;10.70;99.90;;;;;;5034196;28;20204;-57
2022/10/13 03:18:43;;;;;;;11.93;10.67;;;10.70;99.90;;;;;;5034126;28;20172;-57
2022/10/13 03:21:09;;;;;;;11.10;10.00;;;10.80;99.90;;;;;;5034284;28;20175;-55
2022/10/13 03:23:35;;;;;;;11.40;10.20;;;10.80;99.90;;;;;;5033069;28;20616;-56
2022/10/13 03:26:01;;;;;;;12.90;10.23;;;10.80;99.90;;;;;;5034169;28;20172;-57
2022/10/13 03:28:27;;;;;;;11.50;10.40;;;10.80;99.90;;;;;;5033812;28;20230;-57
2022/10/13 03:31:01;;;;;;;12.33;11.13;;;10.80;99.90;;;;;;5034196;28;20557;-57
2022/10/13 03:33:27;;;;;;;11.63;10.40;;;10.80;99.90;;;;;;5033442;28;20211;-57
2022/10/13 03:35:53;;;;;;;11.10;10.00;;;10.70;99.90;;;;;;5034158;28;20649;-57
2022/10/13 03:38:18;;;;;;;11.30;10.20;;;10.70;99.90;;;;;;5033957;28;20174;-56
2022/10/13 03:40:44;;;;;;;12.83;11.60;;;10.70;99.90;;;;;;5030924;28;20653;-55
2022/10/13 03:43:09;;;;;;;10.77;9.77;;;11.00;99.90;;;;;;5033153;28;20208;-56
2022/10/13 03:45:35;;;;;;;12.97;10.87;;;10.80;99.90;;;;;;5033693;28;20211;-56
2022/10/13 03:48:00;;;;;;;13.47;9.90;;;10.90;99.90;;;;;;5033783;28;20172;-57
2022/10/13 03:50:26;;;;;;;12.50;11.30;;;10.90;99.90;;;;;;5033532;28;20203;-57
2022/10/13 03:52:51;;;;;;;12.77;11.47;;;10.90;99.90;;;;;;5033542;28;20199;-55
2022/10/13 03:55:17;;;;;;;13.43;12.23;;;11.00;99.90;;;;;;5033049;28;20171;-57
2022/10/13 03:57:43;;;;;;;16.00;12.60;;;10.90;99.90;;;;;;5033512;28;20172;-57
2022/10/13 04:00:09;;;;;;;11.80;10.67;;;10.90;99.90;;;;;;5033610;28;20206;-56
2022/10/13 04:02:35;;;;;;;12.97;11.63;;;10.90;99.90;;;;;;5033664;28;20235;-59
2022/10/13 04:05:00;;;;;;;12.10;10.90;;;10.90;99.90;;;;;;5033943;28;20183;-58
2022/10/13 04:07:26;;;;;;;13.33;11.93;;;10.90;99.90;;;;;;5034161;28;20180;-56
2022/10/13 04:09:52;;;;;;;12.13;10.93;;;11.00;99.90;;;;;;5033074;28;20756;-56
2022/10/13 04:12:18;;;;;;;14.53;11.87;;;11.00;99.90;;;;;;5033107;28;20192;-56
2022/10/13 04:14:43;;;;;;;12.70;11.40;;;10.90;99.90;;;;;;5032913;28;20286;-53
2022/10/13 04:17:09;;;;;;;14.40;13.00;;;11.00;99.90;;;;;;5033110;28;20172;-57
2022/10/13 04:19:34;;;;;;;17.47;11.97;;;11.00;99.90;;;;;;5032931;28;20171;-56
2022/10/13 04:22:00;;;;;;;13.57;11.83;;;11.00;99.90;;;;;;5032921;28;20200;-55
2022/10/13 04:24:26;;;;;;;16.10;11.30;;;11.00;99.90;;;;;;5032581;28;20175;-54
2022/10/13 04:26:51;;;;;;;13.97;12.57;;;10.90;99.90;;;;;;5032614;28;20172;-56
2022/10/13 04:29:17;;;;;;;12.17;10.70;;;11.00;99.90;;;;;;5032901;28;20196;-56
2022/10/13 04:31:43;;;;;;;11.77;10.43;;;10.90;99.90;;;;;;5032718;28;20183;-53
2022/10/13 04:34:10;;;;;;;11.13;9.97;;;10.90;99.90;;;;;;5031311;28;20196;-55
2022/10/13 04:36:35;;;;;;;11.87;10.63;;;10.80;99.90;;;;;;5032740;28;20251;-56
2022/10/13 04:39:01;;;;;;;11.87;10.63;;;11.00;99.90;;;;;;5032797;28;20307;-56
2022/10/13 04:41:27;;;;;;;11.50;10.23;;;10.90;99.90;;;;;;5032371;28;20314;-52
2022/10/13 04:43:53;;;;;;;11.77;10.50;;;11.10;99.90;;;;;;5032286;28;20249;-55
2022/10/13 04:46:25;;;;;;;12.93;10.37;;;10.90;99.90;;;;;;5034102;28;20167;-54
2022/10/13 04:48:51;;;;;;;12.10;10.80;;;10.90;99.90;;;;;;5032314;28;20168;-57
2022/10/13 04:51:20;;;;;;;10.97;9.80;;;10.90;99.90;;;;;;5031884;28;20183;-55
2022/10/13 04:53:46;;;;;;;11.60;10.37;;;11.00;99.90;;;;;;5031996;28;20198;-53
2022/10/13 04:56:15;;;;;;;12.10;10.77;;;11.00;99.90;;;;;;5032394;28;20172;-53
2022/10/13 04:58:43;;;;;;;13.23;11.80;;;11.10;99.90;;;;;;5032212;28;20175;-53
2022/10/13 05:01:13;;;;;;;12.97;11.07;;;11.00;99.90;;;;;;5032116;28;20168;-57
2022/10/13 05:03:39;;;;;;;12.70;11.40;;;11.00;99.90;;;;;;5031920;28;20568;-54
2022/10/13 05:06:05;;;;;;;13.47;12.07;;;11.10;99.90;;;;;;5032279;28;20255;-55
2022/10/13 05:08:32;;;;;;;13.70;11.57;;;11.00;99.90;;;;;;5032325;28;20576;-55
2022/10/13 05:11:00;;;;;;;16.17;11.60;;;11.00;99.90;;;;;;5032262;28;20167;-53
2022/10/13 05:13:26;;;;;;;12.13;11.00;;;11.10;99.90;;;;;;5031588;28;20681;-56
2022/10/13 05:15:52;;;;;;;12.33;11.13;;;11.00;99.90;;;;;;5031980;28;20570;-52
2022/10/13 05:18:18;;;;;;;14.60;13.10;;;10.90;99.90;;;;;;5031954;28;20172;-55
2022/10/13 05:20:44;;;;;;;15.20;12.87;;;10.90;99.90;;;;;;5032149;28;20175;-53
2022/10/13 05:23:09;;;;;;;14.07;11.67;;;10.90;99.90;;;;;;5031651;28;20283;-56
2022/10/13 05:25:36;;;;;;;12.90;11.60;;;10.90;99.90;;;;;;5031828;28;20199;-53
2022/10/13 05:28:03;;;;;;;14.60;11.60;;;11.00;99.90;;;;;;5032000;28;20160;-54
2022/10/13 05:30:28;;;;;;;12.27;10.77;;;11.10;99.90;;;;;;5031857;28;20195;-56
2022/10/13 05:32:54;;;;;;;12.60;9.83;;;11.20;99.90;;;;;;5031608;28;20288;-53
2022/10/13 05:35:20;;;;;;;12.20;10.90;;;11.10;99.90;;;;;;5030824;28;20179;-56
2022/10/13 05:37:45;;;;;;;11.87;10.30;;;11.10;99.90;;;;;;5031798;28;20180;-54
2022/10/13 05:40:11;;;;;;;12.30;9.80;;;11.20;99.90;;;;;;5031671;28;20195;-57
2022/10/13 05:42:37;;;;;;;10.10;9.20;;;11.10;99.90;;;;;;5031678;28;20561;-57
2022/10/13 05:45:03;;;;;;;10.70;9.60;;;11.10;99.90;;;;;;5031133;28;20184;-56
2022/10/13 05:47:28;;;;;;;11.40;10.33;;;11.00;99.90;;;;;;5031703;28;20184;-56
2022/10/13 05:49:54;;;;;;;10.70;9.40;;;11.00;99.90;;;;;;5031564;28;20172;-53
2022/10/13 05:52:21;;;;;;;11.37;10.17;;;10.90;99.90;;;;;;5031463;28;20652;-57
2022/10/13 05:54:52;;;;;;;11.47;10.27;;;11.10;99.90;;;;;;5031243;28;20216;-57
2022/10/13 05:57:26;;;;;;;11.70;10.30;;;11.00;99.90;;;;;;5025850;28;20212;-54
2022/10/13 06:00:05;;;;;;;11.43;10.00;;;10.90;99.90;;;;;;5023878;28;20175;-56
2022/10/13 06:02:41;;;;;;;12.57;9.90;;;10.90;99.90;;;;;;5031424;28;20561;-55
2022/10/13 06:05:10;;;;;;;11.03;9.93;;;10.90;99.90;;;;;;5031347;28;20246;-55
2022/10/13 06:07:36;;;;;;;13.23;10.63;;;10.90;99.90;;;;;;5031468;28;20179;-57
2022/10/13 06:10:02;;;;;;;11.80;10.60;;;11.00;99.90;;;;;;5031527;28;20561;-55
2022/10/13 06:12:27;;;;;;;12.13;11.03;;;11.00;99.90;;;;;;5031234;28;20200;-57
2022/10/13 06:14:54;;;;;;;11.47;10.33;;;11.00;99.90;;;;;;5031167;28;20227;-53
2022/10/13 06:17:19;;;;;;;11.90;10.60;;;11.20;99.90;;;;;;5031050;28;20164;-56
2022/10/13 06:19:45;;;;;;;15.00;11.20;;;11.20;99.90;;;;;;5030943;28;20249;-55
2022/10/13 06:22:11;;;;;;;14.03;11.73;;;11.20;99.90;;;;;;5031289;28;20183;-58
2022/10/13 06:24:36;;;;;;;13.47;11.40;;;11.20;99.90;;;;;;5031204;28;20191;-54
2022/10/13 06:27:02;;;;;;;14.33;11.70;;;11.20;99.90;;;;;;5031339;28;20545;-56
2022/10/13 06:29:27;;;;;;;12.50;11.13;;;11.20;99.90;;;;;;5031364;28;20183;-56
2022/10/13 06:31:53;;;;;;;12.83;11.47;;;11.20;99.90;;;;;;5029665;28;20175;-57
2022/10/13 06:34:18;;;;;;;12.30;11.00;;;11.20;99.90;;;;;;5031025;28;20266;-54
2022/10/13 06:36:44;;;;;;;12.37;10.97;;;11.20;99.90;;;;;;5031340;28;20168;-59
2022/10/13 06:39:10;;;;;;;17.10;11.30;;;11.30;99.90;;;;;;5031204;28;20730;-55
2022/10/13 06:41:35;;;;;;;14.03;11.20;;;11.50;99.90;;;;;;5031255;28;20660;-52
2022/10/13 06:44:01;;;;;;;11.97;10.20;;;11.40;99.90;;;;;;5030556;28;20219;-54
2022/10/13 06:46:27;;;;;;;12.93;11.53;;;11.60;99.90;;;;;;5030767;28;20187;-55
2022/10/13 06:48:52;;;;;;;14.10;11.47;;;11.60;99.90;;;;;;5030773;28;20710;-57
2022/10/13 06:51:18;;;;;;;11.83;10.63;;;11.70;99.90;;;;;;5029974;28;20251;-54
2022/10/13 06:53:43;;;;;;;13.50;11.40;;;11.80;99.90;;;;;;5029328;28;20200;-57
2022/10/13 06:56:09;;;;;;;16.57;11.53;;;11.90;99.90;;;;;;5030605;28;20172;-57
2022/10/13 06:58:36;;;;;;;13.03;11.80;;;12.00;99.90;;;;;;5033406;28;20179;-56
2022/10/13 07:01:02;;;;;;;14.57;11.60;;;12.00;99.90;;;;;;5034102;28;20172;-58
2022/10/13 07:03:28;;;;;;;13.43;12.03;;;12.10;99.90;;;;;;5033499;28;20238;-56
2022/10/13 07:05:54;;;;;;;13.77;12.17;;;12.10;99.90;;;;;;5030635;28;20285;-59
2022/10/13 07:08:20;;;;;;;12.60;11.10;;;12.20;99.90;;;;;;5021833;28;20188;-57
2022/10/13 07:10:46;;;;;;;14.97;11.47;;;12.10;99.90;;;;;;5028562;28;20645;-57
2022/10/13 07:13:11;;;;;;;13.20;11.07;;;12.10;99.90;;;;;;5029719;28;20261;-56
2022/10/13 07:15:39;;;;;;;11.00;9.90;;;12.20;99.90;;;;;;5032038;28;20259;-54
2022/10/13 07:18:05;;;;;;;11.63;10.23;;;12.30;99.90;;;;;;5032300;28;20226;-55
2022/10/13 07:20:31;;;;;;;12.60;11.30;;;12.40;99.90;;;;;;5031263;28;20551;-55
2022/10/13 07:22:57;;;;;;;13.20;11.80;;;12.40;99.90;;;;;;5031803;28;20196;-53
2022/10/13 07:25:22;;;;;;;13.87;11.10;;;12.30;99.90;;;;;;5026145;28;20185;-56
2022/10/13 07:27:48;;;;;;;14.10;10.70;;;12.30;99.90;;;;;;5031533;28;20183;-55
2022/10/13 07:30:13;;;;;;;13.40;10.93;;;12.20;99.90;;;;;;5032603;28;20184;-55
2022/10/13 07:32:40;;;;;;;12.43;11.03;;;12.40;99.90;;;;;;5032492;28;20222;-53
2022/10/13 07:35:07;;;;;;;12.47;11.17;;;12.50;99.90;;;;;;5032941;28;20223;-54
2022/10/13 07:37:33;;;;;;;15.03;10.40;;;12.50;99.90;;;;;;5033014;28;20658;-57
2022/10/13 07:39:59;;;;;;;10.37;9.23;;;12.60;99.90;;;;;;5032625;28;20218;-56
2022/10/13 07:42:25;;;;;;;11.77;10.50;;;12.70;99.90;;;;;;5027324;28;20747;-57
2022/10/13 07:44:50;;;;;;;12.27;10.67;;;12.80;99.90;;;;;;5032431;28;20217;-56
2022/10/13 07:47:16;;;;;;;11.37;9.50;;;13.00;99.90;;;;;;5033240;28;20182;-57
2022/10/13 07:49:42;;;;;;;12.97;11.47;;;13.10;99.90;;;;;;5031414;28;20216;-57
2022/10/13 07:52:07;;;;;;;14.57;11.30;;;13.10;99.90;;;;;;5032449;28;20187;-54
2022/10/13 07:54:33;;;;;;;12.17;10.83;;;13.00;99.90;;;;;;5032376;28;20216;-58
2022/10/13 07:56:58;;;;;;;14.60;11.23;;;12.90;99.90;;;;;;5032399;28;20209;-56
2022/10/13 07:59:24;;;;;;;15.47;11.93;;;13.10;99.90;;;;;;5032037;28;20535;-56
2022/10/13 08:01:50;;;;;;;12.83;11.27;;;13.20;99.90;;;;;;5032360;28;20171;-57
2022/10/13 08:04:15;;;;;;;14.23;11.00;;;13.10;99.90;;;;;;5031767;28;20205;-57
2022/10/13 08:06:41;;;;;;;12.50;11.30;;;13.10;99.90;;;;;;5032344;28;20182;-57
2022/10/13 08:09:08;;;;;;;12.60;11.40;;;13.30;99.90;;;;;;5032003;28;20183;-57
2022/10/13 08:11:33;;;;;;;12.30;11.10;;;13.40;99.90;;;;;;5032693;28;20240;-57
2022/10/13 08:14:02;;;;;;;16.40;10.40;;;13.60;99.90;;;;;;5032075;28;20195;-57
2022/10/13 08:16:29;;;;;;;13.50;10.77;;;13.80;99.90;;;;;;5029168;28;20785;-57
2022/10/13 08:18:56;;;;;;;11.13;10.07;;;13.80;99.90;;;;;;5032265;28;20260;-56
2022/10/13 08:21:22;;;;;;;11.63;9.77;;;13.70;99.90;;;;;;5032190;28;20641;-56
2022/10/13 08:23:48;;;;;;;11.20;10.10;;;13.90;99.90;;;;;;5032469;28;20275;-58
2022/10/13 08:26:24;;;;;;;11.63;10.53;;;14.10;99.90;;;;;;5032381;28;20203;-57
2022/10/13 08:28:51;;;;;;;11.70;10.57;;;14.20;99.90;;;;;;5032691;28;20184;-58
2022/10/13 08:31:17;;;;;;;12.27;10.97;;;14.50;99.90;;;;;;5023688;28;20271;-56
2022/10/13 08:33:46;;;;;;;13.50;11.87;;;15.00;99.90;;;;;;5015555;28;20327;-57
2022/10/13 08:36:12;;;;;;;10.97;9.87;;;15.30;99.90;;;;;;5025694;28;20187;-58
2022/10/13 08:38:37;;;;;;;12.47;10.73;;;15.90;99.90;;;;;;5032100;28;20661;-58
2022/10/13 08:41:15;;;;;;;14.00;10.17;;;16.40;99.90;;;;;;5027861;28;20217;-53
2022/10/13 08:43:48;;;;;;;12.80;10.47;;;16.60;99.90;;;;;;5026826;28;20201;-56
2022/10/13 08:46:18;;;;;;;14.17;11.00;;;16.70;99.90;;;;;;5012446;28;20176;-56
2022/10/13 08:48:44;;;;;;;13.13;11.27;;;16.80;99.90;;;;;;5020495;28;20652;-56
2022/10/13 08:51:14;;;;;;;11.50;10.43;;;16.70;99.90;;;;;;5031878;28;20242;-54
2022/10/13 08:53:41;;;;;;;10.97;9.87;;;16.90;99.90;;;;;;5031210;28;20203;-56
2022/10/13 08:56:18;;;;;;;13.00;10.53;;;16.90;99.90;;;;;;5031967;28;20172;-55
2022/10/13 08:58:45;;;;;;;11.30;10.20;;;16.80;99.90;;;;;;5031695;28;20202;-59
2022/10/13 09:01:17;;;;;;;9.70;8.73;;;17.00;99.90;;;;;;5031729;28;20691;-59
2022/10/13 09:03:50;;;;;;;10.40;9.30;;;17.10;99.90;;;;;;5031024;28;20201;-59
2022/10/13 09:06:27;;;;;;;11.13;10.03;;;17.10;99.90;;;;;;5024401;28;20188;-58
2022/10/13 09:08:57;;;;;;;13.30;11.90;;;16.90;99.90;;;;;;5031514;28;20188;-59
2022/10/13 09:11:26;;;;;;;10.40;9.40;;;16.00;99.90;;;;;;5031266;28;20198;-58
2022/10/13 09:14:00;;;;;;;10.87;9.77;;;17.00;99.90;;;;;;5030973;28;20615;-61
2022/10/13 09:16:41;;;;;;;12.43;10.60;;;16.70;99.90;;;;;;5031368;28;20168;-59
2022/10/13 09:19:24;;;;;;;11.37;10.27;;;16.90;99.90;;;;;;5030949;28;20156;-59
2022/10/13 09:22:13;;;;;;;11.60;10.50;;;17.10;99.90;;;;;;5023419;28;20203;-59
2022/10/13 09:24:38;;;;;;;11.47;10.10;;;18.00;99.90;;;;;;5018083;28;20369;-61
2022/10/13 09:27:15;;;;;;;11.60;10.40;;;17.50;99.90;;;;;;5030687;28;20199;-59
2022/10/13 09:29:43;;;;;;;16.00;11.40;;;17.60;99.90;;;;;;5033558;28;20191;-60
2022/10/13 09:32:22;;;;;;;11.43;10.40;;;17.80;99.90;;;;;;5021313;28;20191;-60
2022/10/13 09:34:49;;;;;;;11.00;9.67;;;18.10;99.90;;;;;;5016967;28;20748;-60
2022/10/13 09:37:22;;;;;;;15.20;9.97;;;;;;;;;;5015649;28;20271;-59
2022/10/13 09:40:13;;;;;;;13.97;11.13;;;18.60;99.90;;;;;;5030494;28;20179;-61
2022/10/13 09:42:39;;;;;;;10.73;9.40;;;19.30;99.90;;;;;;5033359;28;20240;-61
2022/10/13 09:45:15;;;;;;;10.90;9.80;;;;;;;;;;5009015;28;20187;-60
2022/10/13 09:47:53;;;;;;;9.25;8.30;;;20.90;99.90;;;;;;5008855;28;20300;-61
2022/10/13 09:50:23;;;;;;;10.38;9.30;;;20.80;99.90;;;;;;5009200;28;20326;-61
2022/10/13 09:52:49;;;;;;;11.20;10.00;;;20.60;99.90;;;;;;5009231;28;20494;-62
2022/10/13 09:55:47;;;;;;;13.10;9.68;;;21.20;99.90;;;;;;5008547;28;20654;-63
2022/10/13 09:58:25;;;;;;;10.90;9.80;;;20.10;99.90;;;;;;4930265;29;20211;-62
2022/10/13 10:00:51;;;;;;;10.57;8.60;;;20.40;99.90;;;;;;4945601;28;20297;-61
2022/10/13 10:03:22;;;;;;;10.70;9.60;;;20.20;99.90;;;;;;4969675;28;20205;-62
2022/10/13 10:05:56;;;;;;;13.23;9.88;;;21.20;99.90;;;;;;4969775;28;20178;-62
2022/10/13 10:08:34;;;;;;;11.45;9.30;;;21.00;99.90;;;;;;4969935;28;20242;-62
2022/10/13 10:11:02;;;;;;;11.35;10.07;;;21.20;99.90;;;;;;4969717;28;20493;-62
2022/10/13 10:13:27;;;;;;;11.38;9.45;;;22.00;99.90;;;;;;4969905;28;20198;-62
2022/10/13 10:16:09;;;;;;;11.52;8.35;;;22.40;99.90;;;;;;4969785;28;20182;-61
2022/10/13 10:18:57;;;;;;;7.18;6.30;;;24.30;99.90;;;;;;4970191;28;20268;-62
2022/10/13 10:21:38;;;;;;;8.63;5.93;;;25.90;99.90;;;;;;4969865;28;20683;-62
2022/10/13 10:24:21;;;;;;;9.52;7.50;;;27.80;98.90;;;;;;4968999;28;20268;-59
2022/10/13 10:27:04;;;;;;;5.55;4.82;;;29.10;94.80;;;;;;4969482;28;20602;-60
2022/10/13 10:29:48;;;;;;;9.02;6.40;;;30.50;92.30;;;;;;4969544;28;20178;-59
2022/10/13 10:32:50;;;;;;;7.18;5.10;;;31.50;93.10;;;;;;4962799;28;20226;-60
2022/10/13 10:35:35;;;;;;;6.85;4.80;;;31.90;87.20;;;;;;5017200;28;20680;-56
2022/10/13 10:38:29;;;;;;;5.97;5.47;;;32.40;81.70;;;;;;5034453;28;20556;-60
2022/10/13 10:41:30;;;;;;;6.13;4.60;;;30.10;89.30;;;;;;5030757;28;20274;-57
2022/10/13 10:44:01;;;;;;;6.25;5.40;;;28.30;87.00;;;;;;5032146;28;20223;-63
2022/10/13 10:46:39;;;;;;;10.50;5.93;;;27.60;85.50;;;;;;5034164;28;20163;-60
2022/10/13 10:49:21;;;;;;;7.90;5.70;;;26.40;86.70;;;;;;5035619;28;20277;-61
2022/10/13 10:51:47;;;;;;;8.20;5.80;;;26.30;87.60;;;;;;5034297;28;20254;-60
2022/10/13 10:54:31;;;;;;;9.10;5.05;;;26.20;90.50;;;;;;5033730;28;20207;-62
2022/10/13 10:57:11;;;;;;;7.45;5.03;;;25.60;89.90;;;;;;5034213;28;20234;-62
2022/10/13 11:00:10;;;;;;;7.10;5.82;;;26.10;94.00;;;;;;5034262;28;20152;-61
2022/10/13 11:02:41;;;;;;;6.55;5.10;;;25.20;97.00;;;;;;5033838;28;20206;-61
2022/10/13 11:05:07;;;;;;;6.07;4.70;;;24.40;96.00;;;;;;5034127;28;20180;-58
2022/10/13 11:07:32;;;;;;;7.75;4.82;;;23.50;96.40;;;;;;5033927;28;20768;-60
2022/10/13 11:10:15;;;;;;;7.38;5.43;;;23.60;97.30;;;;;;5033968;28;20604;-61
2022/10/13 11:12:52;;;;;;;6.75;4.55;;;23.30;99.40;;;;;;5033589;28;20270;-57
2022/10/13 11:15:21;;;;;;;7.22;5.97;;;23.40;98.60;;;;;;5033308;28;20206;-61
2022/10/13 11:17:47;;;;;;;7.57;6.32;;;23.30;96.10;;;;;;5033960;28;20255;-59
2022/10/13 11:20:23;;;;;;;8.73;6.05;;;24.50;98.70;;;;;;5033855;28;20602;-59
2022/10/13 11:22:58;;;;;;;7.22;5.63;;;25.60;95.20;;;;;;5033600;28;20576;-60
2022/10/13 11:25:34;;;;;;;8.93;5.68;;;26.40;99.30;;;;;;5033537;28;20164;-59
2022/10/13 11:28:20;;;;;;;6.88;4.95;;;26.20;92.80;;;;;;5033606;28;20695;-59
2022/10/13 11:30:49;;;;;;;7.70;4.78;;;26.30;91.10;;;;;;5033675;28;20204;-60
2022/10/13 11:33:39;;;;;;;5.57;4.57;;;25.70;92.30;;;;;;5032991;28;20211;-61
2022/10/13 11:36:36;;;;;;;9.02;5.10;;;25.10;94.20;;;;;;5033516;28;20159;-61
2022/10/13 11:39:13;;;;;;;6.28;4.68;;;24.70;93.90;;;;;;5018535;28;20180;-62
2022/10/13 11:41:49;;;;;;;8.77;5.25;;;24.60;95.30;;;;;;5024075;28;20649;-60
2022/10/13 11:44:26;;;;;;;6.07;4.88;;;25.00;93.40;;;;;;5022881;28;20231;-60
2022/10/13 11:47:07;;;;;;;8.18;5.40;;;24.20;94.10;;;;;;5024558;28;20175;-59
2022/10/13 11:49:38;;;;;;;6.97;5.38;;;24.80;93.80;;;;;;5024159;28;20237;-62
2022/10/13 11:52:34;;;;;;;5.47;4.97;;;24.10;95.40;;;;;;5024294;28;20215;-58
2022/10/13 11:55:16;;;;;;;9.38;5.90;;;23.40;95.70;;;;;;5031953;28;20206;-61
2022/10/13 11:57:42;;;;;;;6.70;5.65;;;22.80;96.30;;;;;;5030796;28;20242;-60
2022/10/13 12:00:14;;;;;;;8.40;4.95;;;22.40;97.40;;;;;;5032400;28;20175;-56
2022/10/13 12:02:48;;;;;;;7.28;5.35;;;22.10;98.30;;;;;;5032653;28;20204;-56
2022/10/13 12:05:28;;;;;;;8.15;5.82;;;22.50;99.90;;;;;;5032618;28;20172;-62
2022/10/13 12:07:59;;;;;;;8.10;5.22;;;22.10;99.90;;;;;;5026419;28;20180;-60
2022/10/13 12:10:34;;;;;;;9.35;5.50;;;22.50;99.90;;;;;;5032318;28;20614;-60
2022/10/13 12:13:01;;;;;;;7.03;5.57;;;22.20;99.10;;;;;;5032463;28;20204;-62
2022/10/13 12:15:41;;;;;;;11.75;6.20;;;21.30;99.90;;;;;;5031502;28;20200;-62
2022/10/13 12:18:33;;;;;;;9.68;6.45;;;20.80;99.90;;;;;;5031101;28;20538;-63
2022/10/13 12:21:13;;;;;;;7.78;5.82;;;20.20;99.90;;;;;;5030814;28;20172;-62
2022/10/13 12:23:39;;;;;;;11.18;6.22;;;20.10;99.90;;;;;;5030153;28;20203;-60
2022/10/13 12:26:06;;;;;;;9.45;6.00;;;20.10;99.90;;;;;;5031850;28;20186;-58
2022/10/13 12:28:59;;;;;;;8.40;7.18;;;20.20;99.90;;;;;;5032603;28;20179;-61
2022/10/13 12:31:28;;;;;;;8.23;7.05;;;20.50;99.90;;;;;;5032345;28;20202;-59
2022/10/13 12:33:59;;;;;;;7.10;6.05;;;20.10;99.90;;;;;;5031904;28;20215;-55
2022/10/13 12:36:31;;;;;;;8.00;5.65;;;19.70;99.90;;;;;;5030856;28;20175;-59
2022/10/13 12:39:12;;;;;;;11.93;6.90;;;20.40;99.90;;;;;;5029760;28;20251;-59
2022/10/13 12:41:48;;;;;;;8.52;6.38;;;19.90;99.90;;;;;;5032293;28;20177;-61
2022/10/13 12:44:18;;;;;;;10.90;6.80;;;20.30;99.90;;;;;;5032214;28;20234;-58
2022/10/13 12:46:46;;;;;;;7.50;6.05;;;19.70;99.90;;;;;;5032353;28;20201;-62
2022/10/13 12:49:14;;;;;;;8.43;7.10;;;19.50;99.90;;;;;;5031961;28;20549;-58